ADDS METAR Data INFO
IDs: Format: Raw Decoded Include TAF

Data at: 0303 UTC 17 Jan 2018

KOPN 170255Z AUTO 35013G18KT 10SM OVC037 05/M01 A3036 RMK AO2
KOPN 170235Z AUTO 35010G15KT 10SM OVC037 06/00 A3036 RMK AO2
KOPN 170215Z AUTO 34013G17KT 7SM SCT029 OVC037 07/00 A3035 RMK AO2
KOPN 170155Z AUTO 32011KT 10SM BKN029 OVC037 07/00 A3034 RMK AO2
KOPN 170135Z AUTO 31009KT 10SM OVC029 07/00 A3035 RMK AO2
KOPN 170115Z AUTO 30007KT 10SM OVC031 08/M01 A3035 RMK AO2
KOPN 170055Z AUTO 29005KT 10SM OVC033 08/M01 A3035 RMK AO2
KOPN 170035Z AUTO 30008KT 10SM OVC035 08/M02 A3035 RMK AO2
KOPN 170015Z AUTO 32005KT 10SM OVC037 08/M02 A3034 RMK AO2
KOPN 162355Z AUTO 31007KT 10SM OVC039 08/M02 A3034 RMK AO2
KOPN 162335Z AUTO 32007KT 10SM OVC044 09/M03 A3033 RMK AO2
KOPN 162315Z AUTO 35004KT 10SM OVC046 10/M03 A3033 RMK AO2
KOPN 162255Z AUTO 32007KT 10SM OVC048 10/M03 A3034 RMK AO2
KOPN 162235Z AUTO 33005KT 10SM OVC048 10/M03 A3033 RMK AO2
KOPN 162215Z AUTO 28007KT 10SM OVC048 11/M03 A3034 RMK AO2
KOPN 162155Z AUTO 28006KT 10SM BKN048 OVC060 11/M03 A3034 RMK AO2
KOPN 162135Z AUTO 26004KT 10SM BKN048 OVC060 12/M04 A3033 RMK AO2
KOPN 162115Z AUTO 24004KT 10SM OVC048 12/M04 A3033 RMK AO2
KOPN 162055Z AUTO 25005KT 10SM OVC050 12/M05 A3033 RMK AO2
KOPN 162035Z AUTO 20005KT 10SM BKN050 BKN110 12/M05 A3033 RMK AO2
KOPN 162015Z AUTO 00000KT 10SM SCT050 BKN110 12/M05 A3034 RMK AO2
KOPN 161955Z AUTO 24006KT 10SM SCT110 12/M05 A3034 RMK AO2
KOPN 161935Z AUTO 25007KT 10SM CLR 12/M05 A3036 RMK AO2
KOPN 161915Z AUTO 25007KT 10SM CLR 12/M05 A3036 RMK AO2
KOPN 161855Z AUTO 26005KT 10SM CLR 11/M05 A3037 RMK AO2
KOPN 161835Z AUTO 25005KT 10SM CLR 11/M05 A3038 RMK AO2
KOPN 161815Z AUTO 27005KT 10SM CLR 11/M05 A3039 RMK AO2
KOPN 161755Z AUTO 25005KT 10SM CLR 10/M05 A3039 RMK AO2
KOPN 161735Z AUTO 22005KT 10SM CLR 10/M06 A3040 RMK AO2
KOPN 161715Z AUTO 21003KT 10SM CLR 10/M06 A3041 RMK AO2
KOPN 161655Z AUTO 17004KT 10SM CLR 09/M06 A3042 RMK AO2
KOPN 161635Z AUTO 21003KT 10SM CLR 08/M06 A3043 RMK AO2
KOPN 161615Z AUTO 20005KT 10SM CLR 08/M06 A3044 RMK AO2
KOPN 161555Z AUTO 18007KT 10SM CLR 06/M07 A3044 RMK AO2
KOPN 161535Z AUTO 20009KT 10SM CLR 07/M07 A3044 RMK AO2
KOPN 161515Z AUTO 20006KT 10SM CLR 06/M06 A3045 RMK AO2
KOPN 161455Z AUTO 20004KT 10SM CLR 05/M05 A3045 RMK AO2
KOPN 161435Z AUTO 20005KT 10SM CLR 03/M05 A3044 RMK AO2
KOPN 161415Z AUTO 19003KT 10SM CLR 02/M03 A3044 RMK AO2
KOPN 161355Z AUTO 00000KT 10SM CLR 01/M04 A3044 RMK AO2
KOPN 161335Z AUTO 17003KT 10SM CLR 00/M03 A3044 RMK AO2
KOPN 161315Z AUTO 19003KT 10SM CLR M01/M05 A3043 RMK AO2
KOPN 161255Z AUTO 00000KT 10SM CLR M02/M05 A3043 RMK AO2
KOPN 161235Z AUTO 00000KT 10SM CLR M01/M05 A3042 RMK AO2
KOPN 161215Z AUTO 00000KT 10SM CLR M01/M05 A3042 RMK AO2
KOPN 161155Z AUTO 00000KT 10SM CLR M02/M05 A3042 RMK AO2
KOPN 161135Z AUTO 00000KT 10SM CLR M02/M05 A3042 RMK AO2
KOPN 161115Z AUTO 16003KT 10SM CLR M01/M05 A3042 RMK AO2
KOPN 161055Z AUTO 00000KT 10SM CLR M02/M05 A3042 RMK AO2
KOPN 161035Z AUTO 00000KT 10SM CLR M01/M05 A3042 RMK AO2
KOPN 161015Z AUTO 00000KT 10SM CLR M02/M05 A3042 RMK AO2
KOPN 160955Z AUTO 00000KT 10SM CLR M02/M05 A3042 RMK AO2
KOPN 160935Z AUTO 00000KT 10SM CLR M02/M05 A3042 RMK AO2
KOPN 160915Z AUTO 00000KT 10SM CLR M02/M06 A3042 RMK AO2
KOPN 160855Z AUTO 00000KT 10SM CLR M01/M04 A3042 RMK AO2
KOPN 160835Z AUTO 00000KT 10SM CLR M02/M05 A3042 RMK AO2
KOPN 160815Z AUTO 00000KT 10SM CLR M02/M05 A3042 RMK AO2
KOPN 160755Z AUTO 00000KT 10SM CLR M02/M05 A3042 RMK AO2
KOPN 160735Z AUTO 00000KT 10SM CLR 00/M05 A3042 RMK AO2
KOPN 160715Z AUTO 00000KT 10SM CLR 00/M05 A3042 RMK AO2
KOPN 160655Z AUTO 00000KT 10SM CLR M01/M05 A3042 RMK AO2
KOPN 160635Z AUTO 00000KT 10SM CLR M01/M05 A3041 RMK AO2
KOPN 160615Z AUTO 00000KT 10SM CLR M01/M04 A3042 RMK AO2
KOPN 160555Z AUTO 00000KT 10SM CLR M02/M05 A3042 RMK AO2
KOPN 160535Z AUTO 00000KT 10SM CLR 00/M05 A3041 RMK AO2
KOPN 160515Z AUTO 00000KT 10SM CLR 00/M03 A3042 RMK AO2
KOPN 160455Z AUTO 00000KT 10SM CLR 00/M05 A3043 RMK AO2
KOPN 160435Z AUTO 00000KT 10SM CLR 00/M05 A3044 RMK AO2
KOPN 160415Z AUTO 00000KT 10SM CLR 00/M05 A3044 RMK AO2
KOPN 160355Z AUTO 00000KT 10SM CLR 00/M05 A3044 RMK AO2
KOPN 160335Z AUTO 00000KT 10SM CLR 00/M05 A3044 RMK AO2
KOPN 160315Z AUTO 00000KT 10SM CLR 02/M06 A3044 RMK AO2
KOPN 160255Z AUTO 00000KT 10SM CLR 03/M06 A3044 RMK AO2
KOPN 160235Z AUTO 00000KT 10SM CLR 02/M05 A3043 RMK AO2
KOPN 160215Z AUTO 14003KT 10SM CLR 02/M05 A3042 RMK AO2
KOPN 160155Z AUTO 14004KT 10SM CLR 01/M05 A3042 RMK AO2
KOPN 160135Z AUTO 13004KT 10SM CLR 03/M05 A3042 RMK AO2
KOPN 160115Z AUTO 13004KT 10SM CLR 03/M05 A3042 RMK AO2
KOPN 160055Z AUTO 12003KT 10SM CLR 02/M03 A3041 RMK AO2
KOPN 160035Z AUTO 12003KT 10SM CLR 02/M02 A3041 RMK AO2
KOPN 160015Z AUTO 13003KT 10SM CLR 03/M05 A3041 RMK AO2
KOPN 152355Z AUTO 00000KT 10SM CLR 03/M04 A3041 RMK AO2
KOPN 152335Z AUTO 14003KT 10SM CLR 03/M03 A3040 RMK AO2
KOPN 152315Z AUTO 00000KT 10SM CLR 05/M05 A3040 RMK AO2
KOPN 152255Z AUTO 00000KT 10SM CLR 06/M06 A3039 RMK AO2
KOPN 152235Z AUTO 00000KT 10SM CLR 08/M08 A3039 RMK AO2
KOPN 152215Z AUTO 00000KT 10SM CLR 10/M08 A3039 RMK AO2
KOPN 152155Z AUTO 00000KT 10SM CLR 10/M08 A3040 RMK AO2
KOPN 152135Z AUTO 00000KT 10SM CLR 10/M09 A3040 RMK AO2
KOPN 152115Z AUTO 00000KT 10SM CLR 10/M09 A3040 RMK AO2
KOPN 152055Z AUTO 00000KT 10SM CLR 10/M09 A3040 RMK AO2
KOPN 152035Z AUTO 00000KT 10SM CLR 10/M09 A3040 RMK AO2
KOPN 152015Z AUTO 22003KT 10SM CLR 10/M08 A3040 RMK AO2
KOPN 151955Z AUTO 00000KT 10SM CLR 10/M09 A3041 RMK AO2
KOPN 151935Z AUTO 00000KT 10SM CLR 09/M09 A3041 RMK AO2
KOPN 151915Z AUTO 25003KT 10SM CLR 08/M10 A3041 RMK AO2
KOPN 151855Z AUTO 24003KT 10SM CLR 08/M10 A3041 RMK AO2
KOPN 151835Z AUTO 00000KT 10SM CLR 08/M10 A3042 RMK AO2
KOPN 151815Z AUTO 00000KT 10SM CLR 08/M11 A3043 RMK AO2
KOPN 151755Z AUTO 00000KT 10SM CLR 07/M11 A3044 RMK AO2
KOPN 151735Z AUTO 00000KT 10SM CLR 07/M10 A3046 RMK AO2
KOPN 151715Z AUTO 00000KT 10SM CLR 06/M10 A3048 RMK AO2
KOPN 151655Z AUTO 00000KT 10SM CLR 06/M08 A3050 RMK AO2
KOPN 151635Z AUTO 00000KT 10SM CLR 05/M08 A3050 RMK AO2
KOPN 151615Z AUTO 00000KT 10SM CLR 05/M08 A3051 RMK AO2
KOPN 151555Z AUTO 11003KT 10SM CLR 03/M08 A3051 RMK AO2
KOPN 151535Z AUTO 09003KT 10SM CLR 03/M08 A3051 RMK AO2
KOPN 151515Z AUTO 12005KT 10SM CLR 02/M08 A3052 RMK AO2